Time;durP1;ratioP1;P1;durP2;ratioP2;P2;SDS_P1;SDS_P2;PMS_P1;PMS_P2;Temp;Humidity;BMP_temperature;BMP_pressure;BME280_temperature;BME280_humidity;BME280_pressure;Samples;Min_cycle;Max_cycle;Signal;HPM_P1;HPM_P2
2021/09/14 00:01:04;;;;;;;11.55;8.10;;;18.50;99.90;;;;;;4953505;28;20052;-78
2021/09/14 00:04:09;;;;;;;11.65;8.88;;;18.50;99.90;;;;;;4959131;28;20126;-78
2021/09/14 00:06:39;;;;;;;10.00;8.57;;;18.40;99.90;;;;;;4960162;28;20053;-77
2021/09/14 00:09:39;;;;;;;10.13;8.43;;;18.40;99.90;;;;;;4944970;28;20042;-78
2021/09/14 00:12:25;;;;;;;11.45;8.10;;;18.40;99.90;;;;;;4927358;28;20179;-77
2021/09/14 00:15:09;;;;;;;;;;;;;;;;;;;;;
2021/09/14 00:18:53;;;;;;;;;;;;;;;;;;;;;
2021/09/14 00:21:39;;;;;;;9.43;8.50;;;18.20;99.90;;;;;;5027956;28;20051;-77
2021/09/14 00:24:09;;;;;;;12.52;8.35;;;18.10;99.90;;;;;;5001287;28;20375;-77
2021/09/14 00:26:41;;;;;;;11.55;9.80;;;18.10;99.90;;;;;;5002684;28;20042;-77
2021/09/14 00:29:08;;;;;;;11.13;8.90;;;18.00;99.90;;;;;;5019471;28;20056;-77
2021/09/14 00:31:37;;;;;;;9.77;8.88;;;18.00;99.90;;;;;;5003432;28;20136;-77
2021/09/14 00:34:04;;;;;;;13.40;9.10;;;18.00;99.90;;;;;;5003395;28;20045;-77
2021/09/14 00:36:31;;;;;;;11.60;9.18;;;18.00;99.90;;;;;;5006607;28;20499;-76
2021/09/14 00:38:58;;;;;;;9.82;8.93;;;18.00;99.90;;;;;;5014828;28;20489;-77
2021/09/14 00:41:30;;;;;;;13.50;8.93;;;18.00;99.90;;;;;;5014173;28;20053;-77
2021/09/14 00:44:10;;;;;;;12.68;9.55;;;18.00;99.90;;;;;;5058407;28;20053;-77
2021/09/14 00:46:40;;;;;;;10.52;9.05;;;18.00;99.90;;;;;;5004809;28;20049;-77
2021/09/14 00:49:12;;;;;;;10.02;9.13;;;18.00;99.90;;;;;;5003845;28;20045;-77
2021/09/14 00:51:39;;;;;;;11.48;9.73;;;17.90;99.90;;;;;;5026150;28;20061;-77
2021/09/14 00:54:13;;;;;;;11.50;9.80;;;17.90;99.90;;;;;;5029583;28;20041;-77
2021/09/14 00:56:41;;;;;;;11.52;10.35;;;17.90;99.90;;;;;;4995239;28;20045;-77
2021/09/14 00:59:11;;;;;;;11.38;10.23;;;17.90;99.90;;;;;;5015538;28;20397;-77
2021/09/14 01:01:44;;;;;;;11.65;10.38;;;17.80;99.90;;;;;;5005300;28;20588;-77
2021/09/14 01:04:12;;;;;;;14.05;10.85;;;17.90;99.90;;;;;;5013888;28;20060;-77
2021/09/14 01:06:45;;;;;;;12.43;11.10;;;17.90;99.90;;;;;;5007918;28;20038;-76
2021/09/14 01:09:13;;;;;;;12.95;11.32;;;17.80;99.90;;;;;;5012150;28;20049;-76
2021/09/14 01:11:41;;;;;;;13.02;10.63;;;17.80;99.90;;;;;;5005056;28;20405;-77
2021/09/14 01:14:22;;;;;;;13.73;10.88;;;17.80;99.90;;;;;;5024721;28;20060;-77
2021/09/14 01:16:51;;;;;;;12.65;11.32;;;17.80;99.90;;;;;;5015353;28;20128;-77
2021/09/14 01:19:23;;;;;;;12.30;11.00;;;17.70;99.90;;;;;;4997792;28;20450;-76
2021/09/14 01:21:52;;;;;;;11.27;10.18;;;17.80;99.90;;;;;;5004726;28;20050;-76
2021/09/14 01:24:19;;;;;;;12.85;11.18;;;17.80;99.90;;;;;;5002555;28;20041;-76
2021/09/14 01:26:46;;;;;;;12.07;10.38;;;17.80;99.90;;;;;;5014320;28;20137;-76
2021/09/14 01:32:04;;;;;;;11.20;10.15;;;17.80;99.90;;;;;;4961386;28;20085;-77
2021/09/14 01:34:31;;;;;;;10.82;9.68;;;17.80;99.90;;;;;;4970617;28;20046;-76
2021/09/14 01:37:08;;;;;;;;;;;17.80;99.90;;;;;;4952154;29;20053;-77
2021/09/14 01:39:37;;;;;;;12.70;9.88;;;17.90;99.90;;;;;;4928022;28;19964;-76
2021/09/14 01:42:08;;;;;;;10.90;9.65;;;17.90;99.90;;;;;;4936380;28;20066;-77
2021/09/14 01:45:25;;;;;;;11.48;10.35;;;17.90;99.90;;;;;;4942116;28;20039;-77
2021/09/14 01:48:47;;;;;;;;;;;;;;;;;;;;;
2021/09/14 01:51:44;;;;;;;;;;;;;;;;;;;;;
2021/09/14 01:54:25;;;;;;;15.68;11.45;;;17.90;99.90;;;;;;4890281;29;20059;-77
2021/09/14 01:56:55;;;;;;;14.50;11.88;;;17.90;99.90;;;;;;4873343;29;20127;-76
2021/09/14 03:35:07;;;;;;;;;;;;;;;;;;;;;
2021/09/14 05:11:17;;;;;;;;;;;;;;;;;;;;;
2021/09/14 05:14:03;;;;;;;15.63;14.00;;;17.70;99.90;;;;;;5992378;23;20074;-75
2021/09/14 05:16:30;;;;;;;17.33;15.18;;;17.70;99.90;;;;;;5984725;23;20464;-77
2021/09/14 05:19:11;;;;;;;16.00;14.55;;;17.60;99.90;;;;;;6002751;23;20389;-76
2021/09/14 05:24:42;;;;;;;16.73;14.45;;;17.60;99.90;;;;;;5982304;23;20516;-77
2021/09/14 05:27:19;;;;;;;15.32;13.45;;;17.60;99.90;;;;;;5984864;23;20027;-76
2021/09/14 05:29:48;;;;;;;16.08;14.38;;;17.60;99.90;;;;;;5985326;23;20603;-76
2021/09/14 05:32:17;;;;;;;15.20;13.25;;;17.60;99.90;;;;;;5974072;23;20107;-76
2021/09/14 05:34:51;;;;;;;14.77;13.25;;;17.60;99.90;;;;;;5984503;23;20030;-76
2021/09/14 05:37:23;;;;;;;15.02;13.48;;;17.60;99.90;;;;;;5973267;23;20393;-77
2021/09/14 05:39:54;;;;;;;14.25;12.82;;;17.60;99.90;;;;;;6015702;23;20024;-76
2021/09/14 05:42:26;;;;;;;14.13;12.68;;;17.60;99.90;;;;;;5982888;23;20019;-77
2021/09/14 05:45:05;;;;;;;;;;;;;;;;;;;;;
2021/09/14 05:47:58;;;;;;;13.88;12.15;;;17.60;99.90;;;;;;6005451;23;20047;-76
2021/09/14 05:50:28;;;;;;;13.52;12.18;;;17.60;99.90;;;;;;6028985;23;20031;-77
2021/09/14 05:52:56;;;;;;;12.90;11.65;;;17.60;99.90;;;;;;6086181;23;20017;-77
2021/09/14 05:55:29;;;;;;;13.23;11.80;;;17.60;99.90;;;;;;6097229;23;20037;-77
2021/09/14 05:58:24;;;;;;;13.23;12.02;;;17.70;99.90;;;;;;6061463;23;20057;-77
2021/09/14 06:00:56;;;;;;;13.52;11.88;;;17.70;99.90;;;;;;6049638;23;20022;-77
2021/09/14 06:03:35;;;;;;;12.00;10.80;;;17.70;99.90;;;;;;6121005;23;20534;-76
2021/09/14 06:06:24;;;;;;;11.52;10.32;;;17.70;99.90;;;;;;6141637;23;20020;-77
2021/09/14 06:08:59;;;;;;;12.93;11.65;;;17.70;99.90;;;;;;6168863;23;20116;-76
2021/09/14 06:11:35;;;;;;;11.80;10.77;;;17.70;99.90;;;;;;6182143;23;20025;-76
2021/09/14 06:17:58;;;;;;;12.77;10.77;;;17.70;99.90;;;;;;6063226;23;20026;-75
2021/09/14 06:28:48;;;;;;;;;;;;;;;;;;;;;
2021/09/14 06:31:52;;;;;;;11.80;10.52;;;17.80;99.90;;;;;;5802891;23;20024;-77
2021/09/14 07:04:16;;;;;;;;;;;;;;;;;;;;;
2021/09/14 07:14:15;;;;;;;16.77;11.07;;;18.20;99.90;;;;;;5747016;24;2102730;-77
2021/09/14 07:37:55;;;;;;;11.43;10.30;;;18.60;99.90;;;;;;5779128;22;9808473;-77
2021/09/14 07:49:05;;;;;;;13.35;10.32;;;18.80;99.90;;;;;;5844878;24;20453;-78
2021/09/14 08:09:30;;;;;;;13.68;10.10;;;19.00;99.90;;;;;;5106762;27;20388;-78
2021/09/14 08:12:46;;;;;;;15.73;10.82;;;19.10;99.90;;;;;;5079891;28;20043;-78
2021/09/14 08:15:55;;;;;;;13.98;10.52;;;19.10;99.90;;;;;;5013667;28;20091;-78
2021/09/14 08:18:31;;;;;;;10.82;9.73;;;19.20;99.90;;;;;;5020966;28;20068;-78
2021/09/14 08:21:08;;;;;;;12.85;10.00;;;19.20;99.90;;;;;;5024078;28;20179;-78
2021/09/14 08:23:44;;;;;;;14.50;10.52;;;19.20;99.90;;;;;;5001642;28;20137;-76
2021/09/14 08:26:31;;;;;;;12.82;9.88;;;19.30;99.90;;;;;;5058129;28;20154;-77
2021/09/14 08:29:11;;;;;;;13.10;10.52;;;19.30;99.90;;;;;;5016067;28;20482;-76
2021/09/14 08:31:50;;;;;;;11.75;9.32;;;19.40;99.90;;;;;;5015585;28;20049;-76
2021/09/14 08:34:22;;;;;;;12.27;10.48;;;19.40;99.90;;;;;;5052413;28;20101;-76
2021/09/14 08:36:57;;;;;;;13.32;10.30;;;19.40;99.90;;;;;;5082856;28;20048;-76
2021/09/14 08:39:37;;;;;;;17.23;10.68;;;19.40;99.90;;;;;;5071181;28;20427;-76
2021/09/14 08:42:14;;;;;;;13.57;10.13;;;19.40;99.90;;;;;;5063580;28;20517;-77
2021/09/14 08:44:52;;;;;;;14.85;11.27;;;19.50;99.90;;;;;;5068865;28;20136;-76
2021/09/14 08:47:37;;;;;;;13.10;9.80;;;19.50;99.90;;;;;;5026935;28;21056;-77
2021/09/14 08:50:31;;;;;;;13.60;10.77;;;19.50;99.90;;;;;;5002667;28;20108;-76
2021/09/14 08:53:30;;;;;;;;;;;;;;;;;;;;;
2021/09/14 08:56:08;;;;;;;17.55;11.70;;;19.50;99.90;;;;;;5010450;28;20049;-76
2021/09/14 08:58:57;;;;;;;14.65;11.77;;;19.60;99.90;;;;;;5001831;28;20476;-76
2021/09/14 09:01:26;;;;;;;19.17;12.30;;;19.60;99.90;;;;;;4986608;28;20144;-76
2021/09/14 09:04:12;;;;;;;15.10;11.85;;;19.60;99.90;;;;;;5000271;28;20100;-77
2021/09/14 09:06:42;;;;;;;17.58;12.63;;;19.60;99.90;;;;;;4975209;28;20039;-78
2021/09/14 09:09:26;;;;;;;12.48;10.60;;;19.70;99.90;;;;;;5052642;28;20036;-76
2021/09/14 09:12:01;;;;;;;15.77;10.38;;;19.70;99.90;;;;;;5045001;28;20442;-78
2021/09/14 09:14:47;;;;;;;17.83;12.73;;;19.80;99.90;;;;;;5044335;28;20048;-77
2021/09/14 09:17:42;;;;;;;;;;;;;;;;;;;;;
2021/09/14 09:20:46;;;;;;;;;;;;;;;;;;;;;
2021/09/14 09:23:58;;;;;;;21.15;12.73;;;20.20;99.90;;;;;;5035198;28;20059;-76
2021/09/14 09:27:03;;;;;;;;;;;;;;;;;;;;;
2021/09/14 09:30:15;;;;;;;16.92;11.60;;;20.70;99.90;;;;;;5032132;28;20144;-76
2021/09/14 09:33:08;;;;;;;16.98;11.07;;;20.90;99.90;;;;;;5047433;28;20145;-77
2021/09/14 09:36:31;;;;;;;17.17;11.85;;;21.10;99.90;;;;;;5016225;28;20040;-78
2021/09/14 09:39:41;;;;;;;18.70;11.77;;;21.30;99.90;;;;;;4948723;28;20477;-75
2021/09/14 09:43:04;;;;;;;;;;;;;;;;;;;;;
2021/09/14 09:46:35;;;;;;;;;;;;;;;;;;;;;
2021/09/14 09:49:47;;;;;;;17.77;11.38;;;21.70;99.90;;;;;;4816321;29;20065;-78
2021/09/14 09:52:25;;;;;;;14.20;9.52;;;21.70;99.90;;;;;;4787920;29;20089;-78
2021/09/14 09:55:32;;;;;;;21.42;10.73;;;21.80;99.90;;;;;;4816499;29;20048;-78
2021/09/14 09:58:39;;;;;;;14.70;10.82;;;21.90;99.90;;;;;;4816079;29;20057;-78
2021/09/14 10:01:39;;;;;;;;;;;;;;;;;;;;;
2021/09/14 10:11:08;;;;;;;;;;;;;;;;;;;;;
2021/09/14 10:14:51;;;;;;;17.95;10.93;;;22.10;99.90;;;;;;4804817;29;20080;-78
2021/09/14 10:17:12;;;;;;;;;;;22.20;99.90;;;;;;4804345;29;20052;-79
2021/09/14 10:23:40;;;;;;;;;;;;;;;;;;;;;
2021/09/14 10:26:19;;;;;;;;;;;;;;;;;;;;;
2021/09/14 10:29:23;;;;;;;;;;;;;;;;;;;;;
2021/09/14 10:32:16;;;;;;;18.30;9.57;;;22.80;99.90;;;;;;4813061;29;20379;-77
2021/09/14 10:35:10;;;;;;;16.45;9.88;;;22.90;99.90;;;;;;4758577;29;20046;-77
2021/09/14 10:37:48;;;;;;;16.08;9.80;;;23.00;99.90;;;;;;4820149;29;20073;-77
2021/09/14 10:40:32;;;;;;;;;;;;;;;;;;;;;
2021/09/14 10:43:59;;;;;;;;;;;;;;;;;;;;;
2021/09/14 10:47:24;;;;;;;;;;;;;;;;;;;;;
2021/09/14 10:50:45;;;;;;;;;;;;;;;;;;;;;
2021/09/14 10:56:30;;;;;;;;;;;;;;;;;;;;;
2021/09/14 11:09:47;;;;;;;10.70;4.68;;;23.80;99.90;;;;;;5080548;28;20458;-78
2021/09/14 11:13:13;;;;;;;12.40;5.82;;;24.20;99.90;;;;;;5069555;28;20451;-77
2021/09/14 11:16:32;;;;;;;;;;;;;;;;;;;;;
2021/09/14 11:19:52;;;;;;;;;;;;;;;;;;;;;
2021/09/14 11:22:46;;;;;;;13.15;5.82;;;24.40;99.90;;;;;;4980339;28;20049;-77
2021/09/14 11:25:39;;;;;;;12.98;5.32;;;24.40;99.90;;;;;;4971726;28;20063;-78
2021/09/14 11:28:32;;;;;;;12.27;5.50;;;24.40;99.90;;;;;;4991274;28;20054;-76
2021/09/14 11:31:18;;;;;;;;;;;;;;;;;;;;;
2021/09/14 11:34:20;;;;;;;10.80;5.30;;;24.40;99.90;;;;;;5006698;28;20065;-76
2021/09/14 11:36:54;;;;;;;8.40;5.15;;;24.40;99.90;;;;;;5014830;28;20049;-78
2021/09/14 11:40:05;;;;;;;;;;;;;;;;;;;;;
2021/09/14 11:43:10;;;;;;;10.30;4.35;;;24.30;99.90;;;;;;4999830;28;20372;-78
2021/09/14 11:46:47;;;;;;;7.82;4.35;;;24.30;99.90;;;;;;4987892;28;20048;-78
2021/09/14 11:49:52;;;;;;;9.68;4.47;;;24.30;99.90;;;;;;4928589;28;20050;-77
2021/09/14 12:06:41;;;;;;;6.50;3.55;;;24.60;99.90;;;;;;6193508;22;20351;-78
2021/09/14 12:09:28;;;;;;;6.22;3.88;;;25.40;99.90;;;;;;6146613;23;20063;-79
2021/09/14 12:12:09;;;;;;;7.75;4.20;;;25.40;99.90;;;;;;6185110;23;20021;-78
2021/09/14 12:14:44;;;;;;;10.82;4.50;;;25.40;99.90;;;;;;6155689;23;20032;-78
2021/09/14 12:17:46;;;;;;;10.55;4.57;;;25.40;99.90;;;;;;6155698;23;20013;-78
2021/09/14 12:20:25;;;;;;;10.35;4.15;;;25.50;99.90;;;;;;6163994;23;20021;-78
2021/09/14 12:23:05;;;;;;;7.25;3.75;;;25.50;99.90;;;;;;6166423;23;20025;-79
2021/09/14 12:25:36;;;;;;;10.80;4.07;;;25.60;99.90;;;;;;6150626;23;20043;-79
2021/09/14 12:28:15;;;;;;;8.38;3.80;;;25.70;99.90;;;;;;6153993;23;20024;-79
2021/09/14 12:30:46;;;;;;;7.88;3.88;;;25.70;99.90;;;;;;6169298;23;20024;-78
2021/09/14 12:33:24;;;;;;;9.10;4.30;;;25.70;99.90;;;;;;6157438;23;20016;-79
2021/09/14 12:36:05;;;;;;;10.00;4.70;;;25.70;99.90;;;;;;6164311;23;20016;-79
2021/09/14 12:38:34;;;;;;;10.23;4.55;;;25.60;99.90;;;;;;6197879;23;20025;-78
2021/09/14 12:41:08;;;;;;;8.60;4.57;;;25.50;99.90;;;;;;6200982;23;20021;-78
2021/09/14 12:43:35;;;;;;;11.95;4.75;;;25.30;99.90;;;;;;6202695;23;20031;-78
2021/09/14 12:46:05;;;;;;;9.20;5.40;;;25.20;99.90;;;;;;6152919;23;20388;-78
2021/09/14 12:48:35;;;;;;;11.40;6.75;;;24.90;99.90;;;;;;6165110;23;20021;-78
2021/09/14 12:51:03;;;;;;;8.73;6.50;;;24.50;99.90;;;;;;6152801;23;20028;-78
2021/09/14 12:53:30;;;;;;;12.93;7.07;;;24.20;99.90;;;;;;6165081;23;20029;-78
2021/09/14 12:56:01;;;;;;;8.75;6.05;;;23.90;99.90;;;;;;6165984;23;20096;-78
2021/09/14 12:58:45;;;;;;;10.68;7.05;;;23.70;99.90;;;;;;6156105;23;20025;-78
2021/09/14 13:01:12;;;;;;;13.18;7.57;;;23.50;99.90;;;;;;6127651;23;20028;-78
2021/09/14 13:03:42;;;;;;;17.27;8.20;;;23.40;99.90;;;;;;6188248;23;20457;-78
2021/09/14 13:06:12;;;;;;;18.10;8.27;;;23.20;99.90;;;;;;6161498;23;20017;-78
2021/09/14 13:08:43;;;;;;;30.92;10.45;;;23.00;99.90;;;;;;6159395;23;20020;-78
2021/09/14 13:11:11;;;;;;;27.27;9.90;;;22.90;99.90;;;;;;6154002;23;20468;-78
2021/09/14 13:16:24;;;;;;;19.20;9.35;;;22.80;99.90;;;;;;6186050;23;20071;-77
2021/09/14 13:18:53;;;;;;;12.82;8.93;;;22.70;99.90;;;;;;6159655;23;20055;-78
2021/09/14 13:25:42;;;;;;;;;;;;;;;;;;;;;
2021/09/14 13:29:15;;;;;;;;;;;;;;;;;;;;;
2021/09/14 13:31:52;;;;;;;17.05;10.02;;;22.60;99.90;;;;;;5837888;24;20377;-78
2021/09/14 13:34:41;;;;;;;17.10;11.13;;;22.50;99.90;;;;;;5868433;24;20021;-78
2021/09/14 13:40:09;;;;;;;;;;;;;;;;;;;;;
2021/09/14 13:42:54;;;;;;;10.15;7.75;;;22.40;99.90;;;;;;5905222;24;20467;-79
2021/09/14 13:48:37;;;;;;;13.27;8.55;;;22.40;99.90;;;;;;5903056;24;20106;-78
2021/09/14 13:51:28;;;;;;;16.17;8.63;;;22.40;99.90;;;;;;5928030;23;20125;-78
2021/09/14 13:54:17;;;;;;;12.15;9.27;;;22.40;99.90;;;;;;5918107;24;20358;-78
2021/09/14 13:57:06;;;;;;;11.10;8.23;;;22.50;99.90;;;;;;5907459;24;20508;-78
2021/09/14 13:59:59;;;;;;;;;;;;;;;;;;;;;
2021/09/14 14:02:43;;;;;;;7.85;5.00;;;22.50;99.90;;;;;;5987968;23;20035;-78
2021/09/14 14:05:16;;;;;;;7.07;4.65;;;22.60;99.90;;;;;;5992278;23;20049;-78
2021/09/14 14:07:52;;;;;;;7.80;4.90;;;22.60;99.90;;;;;;6083781;23;20028;-78
2021/09/14 14:10:26;;;;;;;10.70;5.55;;;22.70;99.90;;;;;;6146277;23;20039;-78
2021/09/14 14:12:57;;;;;;;11.63;6.97;;;22.70;99.90;;;;;;6150602;23;20404;-78
2021/09/14 14:19:55;;;;;;;;;;;;;;;;;;;;;
2021/09/14 15:59:27;;;;;;;;;;;;;;;;;;;;;
2021/09/14 16:02:49;;;;;;;8.75;5.82;;;22.70;99.90;;;;;;5954070;23;20499;-78
2021/09/14 16:09:55;;;;;;;9.02;5.47;;;22.30;99.90;;;;;;5851525;23;20031;-79
2021/09/14 16:23:10;;;;;;;9.18;6.90;;;22.20;99.90;;;;;;5047957;27;20479;-77
2021/09/14 16:25:37;;;;;;;10.15;7.57;;;21.60;99.90;;;;;;5043152;28;20053;-77
2021/09/14 16:28:05;;;;;;;12.73;7.72;;;21.50;99.90;;;;;;5045191;28;20046;-77
2021/09/14 16:30:34;;;;;;;9.63;7.47;;;21.40;99.90;;;;;;5037209;28;20040;-77
2021/09/14 16:33:02;;;;;;;12.30;6.95;;;21.30;99.90;;;;;;5046567;28;20298;-75
2021/09/14 16:35:30;;;;;;;10.45;7.45;;;21.20;99.90;;;;;;5040254;28;20172;-75
2021/09/14 16:37:57;;;;;;;9.25;7.40;;;21.10;99.90;;;;;;5044453;28;20047;-78
2021/09/14 16:40:25;;;;;;;10.73;7.72;;;21.00;99.90;;;;;;5040730;28;20049;-76
2021/09/14 16:42:55;;;;;;;11.25;7.35;;;21.00;99.90;;;;;;5043468;28;20120;-76
2021/09/14 16:45:24;;;;;;;10.02;7.93;;;21.00;99.90;;;;;;5072672;28;20053;-77
2021/09/14 16:47:51;;;;;;;9.63;7.22;;;20.90;99.90;;;;;;5039720;28;20382;-77
2021/09/14 16:50:18;;;;;;;9.45;7.28;;;20.90;99.90;;;;;;5037133;28;20088;-76
2021/09/14 16:52:52;;;;;;;10.55;7.78;;;20.90;99.90;;;;;;5041000;28;20052;-76
2021/09/14 16:55:19;;;;;;;10.98;7.38;;;20.90;99.90;;;;;;5075553;28;20072;-75
2021/09/14 16:57:46;;;;;;;11.93;8.23;;;20.80;99.90;;;;;;5045482;28;20060;-75
2021/09/14 17:00:15;;;;;;;11.57;7.53;;;20.80;99.90;;;;;;5077758;28;20393;-75
2021/09/14 17:02:59;;;;;;;9.88;7.63;;;20.80;99.90;;;;;;5020085;28;20040;-77
2021/09/14 17:06:14;;;;;;;9.98;7.70;;;20.80;99.90;;;;;;4958255;28;20053;-77
2021/09/14 17:08:42;;;;;;;11.23;7.85;;;20.90;99.90;;;;;;4987425;28;20039;-75
2021/09/14 17:11:10;;;;;;;7.32;6.55;;;20.90;99.90;;;;;;4957147;28;20109;-76
2021/09/14 17:21:00;;;;;;;10.80;6.82;;;20.90;99.90;;;;;;5038940;28;20135;-79
2021/09/14 17:31:29;;;;;;;;;;;20.90;99.90;;;;;;4771833;29;20368;-79
2021/09/14 17:34:39;;;;;;;;;;;;;;;;;;;;;
2021/09/14 17:37:10;;;;;;;10.15;5.68;;;20.80;99.90;;;;;;4803876;29;20050;-77
2021/09/14 17:39:36;;;;;;;7.88;5.43;;;20.80;99.90;;;;;;4925097;28;20044;-77
2021/09/14 17:42:04;;;;;;;7.23;5.57;;;20.70;99.90;;;;;;5003088;28;20045;-76
2021/09/14 17:44:31;;;;;;;6.70;5.30;;;20.70;99.90;;;;;;5019659;28;20048;-77
2021/09/14 17:46:58;;;;;;;9.55;5.28;;;20.60;99.90;;;;;;5015305;28;20144;-77
2021/09/14 17:49:25;;;;;;;8.20;5.07;;;20.60;99.90;;;;;;5020709;28;20056;-77
2021/09/14 17:51:54;;;;;;;8.93;4.72;;;20.60;99.90;;;;;;5023815;28;20451;-76
2021/09/14 17:54:21;;;;;;;6.22;5.30;;;20.60;99.90;;;;;;5023164;28;20433;-75
2021/09/14 17:56:49;;;;;;;9.40;5.43;;;20.60;99.90;;;;;;5023622;28;20497;-76
2021/09/14 17:59:16;;;;;;;10.55;5.57;;;20.60;99.90;;;;;;5023618;28;20042;-75
2021/09/14 18:01:43;;;;;;;5.93;4.60;;;20.60;99.90;;;;;;5022990;28;20413;-76
2021/09/14 18:04:12;;;;;;;7.55;4.97;;;20.50;99.90;;;;;;5021652;28;20412;-75
2021/09/14 18:06:44;;;;;;;8.25;4.68;;;20.50;99.90;;;;;;5023488;28;20053;-76
2021/09/14 18:09:12;;;;;;;7.18;4.55;;;20.40;99.90;;;;;;5040290;28;20045;-75
2021/09/14 18:11:39;;;;;;;9.43;4.43;;;20.40;99.90;;;;;;5029257;28;20496;-75
2021/09/14 18:14:06;;;;;;;8.43;4.72;;;20.40;99.90;;;;;;5040813;28;20381;-76
2021/09/14 18:16:33;;;;;;;6.65;4.60;;;20.30;99.90;;;;;;5036232;28;20478;-75
2021/09/14 18:19:00;;;;;;;5.47;4.55;;;20.30;99.90;;;;;;5041174;28;20059;-77
2021/09/14 18:21:27;;;;;;;8.45;4.75;;;20.20;99.90;;;;;;5050739;28;20047;-76
2021/09/14 18:23:54;;;;;;;6.20;4.18;;;20.10;99.90;;;;;;5057135;28;20045;-77
2021/09/14 18:26:21;;;;;;;9.45;4.93;;;20.10;99.90;;;;;;5041028;28;20049;-76
2021/09/14 18:28:48;;;;;;;7.78;4.05;;;20.00;99.90;;;;;;5044451;28;20051;-75
2021/09/14 18:31:16;;;;;;;8.73;4.07;;;19.90;99.90;;;;;;5042800;28;20107;-77
2021/09/14 18:33:50;;;;;;;6.47;3.75;;;19.90;99.90;;;;;;5041716;28;20060;-74
2021/09/14 18:36:22;;;;;;;5.60;3.30;;;19.80;99.90;;;;;;5056786;28;20500;-77
2021/09/14 18:38:52;;;;;;;6.10;3.20;;;19.70;99.90;;;;;;5044962;28;20048;-76
2021/09/14 18:41:19;;;;;;;5.63;3.35;;;19.70;99.90;;;;;;5058057;28;20052;-76
2021/09/14 18:43:47;;;;;;;4.95;2.88;;;19.70;99.90;;;;;;5060803;28;20067;-76
2021/09/14 18:46:14;;;;;;;6.47;3.17;;;19.70;99.90;;;;;;5066262;28;20040;-76
2021/09/14 18:48:41;;;;;;;5.18;3.30;;;19.60;99.90;;;;;;5068248;28;20037;-75
2021/09/14 18:51:08;;;;;;;7.30;3.63;;;19.50;99.90;;;;;;5067376;28;20052;-76
2021/09/14 18:53:36;;;;;;;5.72;3.35;;;19.50;99.90;;;;;;5056649;28;20063;-76
2021/09/14 18:56:05;;;;;;;5.47;3.40;;;19.50;99.90;;;;;;5065193;28;20044;-76
2021/09/14 18:58:32;;;;;;;6.35;3.38;;;19.50;99.90;;;;;;5060773;28;20353;-75
2021/09/14 19:01:02;;;;;;;5.82;3.10;;;19.40;99.90;;;;;;5064305;28;20056;-76
2021/09/14 19:03:30;;;;;;;4.70;3.05;;;19.40;99.90;;;;;;5058447;28;20052;-76
2021/09/14 19:05:58;;;;;;;5.65;3.15;;;19.40;99.90;;;;;;5063123;28;20087;-76
2021/09/14 19:08:26;;;;;;;5.63;3.30;;;19.40;99.90;;;;;;5058697;28;20048;-76
2021/09/14 19:10:53;;;;;;;7.00;3.55;;;19.30;99.90;;;;;;5043499;28;20409;-77
2021/09/14 19:13:24;;;;;;;4.18;3.30;;;19.30;99.90;;;;;;5049176;28;20047;-77
2021/09/14 19:15:57;;;;;;;5.95;3.05;;;19.40;99.90;;;;;;5065460;28;20040;-76
2021/09/14 19:18:25;;;;;;;6.25;3.42;;;19.30;99.90;;;;;;5062072;28;20076;-77
2021/09/14 19:20:52;;;;;;;5.93;3.60;;;19.30;99.90;;;;;;5066201;28;20071;-77
2021/09/14 19:23:20;;;;;;;7.45;3.70;;;19.30;99.90;;;;;;5064482;28;20052;-76
2021/09/14 19:25:48;;;;;;;8.45;3.83;;;19.30;99.90;;;;;;5064455;28;20048;-77
2021/09/14 19:28:16;;;;;;;8.20;4.07;;;19.20;99.90;;;;;;5064565;28;20047;-77
2021/09/14 19:30:43;;;;;;;7.10;4.45;;;19.20;99.90;;;;;;5054697;28;20056;-77
2021/09/14 19:33:11;;;;;;;8.68;4.05;;;19.30;99.90;;;;;;5066040;28;20047;-77
2021/09/14 19:35:38;;;;;;;8.00;4.43;;;19.20;99.90;;;;;;5066167;28;20056;-77
2021/09/14 19:38:08;;;;;;;8.45;4.43;;;19.20;99.90;;;;;;5065475;28;20049;-77
2021/09/14 19:40:39;;;;;;;6.55;4.38;;;19.20;99.90;;;;;;5066357;28;20052;-77
2021/09/14 19:43:06;;;;;;;10.10;4.85;;;19.10;99.90;;;;;;5063481;28;20091;-78
2021/09/14 19:45:35;;;;;;;8.00;5.00;;;19.10;99.90;;;;;;5065073;28;20052;-77
2021/09/14 19:48:02;;;;;;;;;;;19.10;99.90;;;;;;5067390;28;20048;-77
2021/09/14 19:50:30;;;;;;;11.00;4.70;;;19.00;99.90;;;;;;5066889;28;20352;-77
2021/09/14 19:52:58;;;;;;;12.88;5.30;;;19.00;99.90;;;;;;5064462;28;20043;-77
2021/09/14 19:55:24;;;;;;;11.75;5.28;;;18.90;99.90;;;;;;5066810;28;20051;-77
2021/09/14 19:57:52;;;;;;;6.15;5.20;;;18.90;99.90;;;;;;5066845;28;20043;-78
2021/09/14 20:00:20;;;;;;;10.25;6.18;;;18.90;99.90;;;;;;5055457;28;20048;-77
2021/09/14 20:02:48;;;;;;;10.70;6.27;;;18.80;99.90;;;;;;5063674;28;20396;-77
2021/09/14 20:05:15;;;;;;;7.60;5.73;;;18.80;99.90;;;;;;5057936;28;20289;-77
2021/09/14 20:07:45;;;;;;;9.15;5.68;;;18.80;99.90;;;;;;5059027;28;20060;-77
2021/09/14 20:10:12;;;;;;;8.52;6.38;;;18.70;99.90;;;;;;5064597;28;20052;-77
2021/09/14 20:12:41;;;;;;;12.20;7.32;;;18.70;99.90;;;;;;5059597;28;20049;-76
2021/09/14 20:15:10;;;;;;;10.07;7.20;;;18.60;99.90;;;;;;5060732;28;20183;-77
2021/09/14 20:17:37;;;;;;;11.13;6.75;;;18.60;99.90;;;;;;5056830;28;20052;-77
2021/09/14 20:20:07;;;;;;;10.02;6.93;;;18.50;99.90;;;;;;5060749;28;20124;-77
2021/09/14 20:22:37;;;;;;;9.60;7.32;;;18.50;99.90;;;;;;5059375;28;20056;-77
2021/09/14 20:25:05;;;;;;;12.95;7.63;;;18.50;99.90;;;;;;5059477;28;20481;-77
2021/09/14 20:27:33;;;;;;;9.85;7.60;;;18.30;99.90;;;;;;5055586;28;20045;-77
2021/09/14 20:30:01;;;;;;;8.70;7.38;;;18.30;99.90;;;;;;5081064;28;20090;-75
2021/09/14 20:32:28;;;;;;;11.18;7.95;;;18.30;99.90;;;;;;5061439;28;20059;-76
2021/09/14 20:34:55;;;;;;;12.02;7.82;;;18.20;99.90;;;;;;5066063;28;20438;-76
2021/09/14 20:37:22;;;;;;;9.25;7.57;;;18.20;99.90;;;;;;5060229;28;20519;-76
2021/09/14 20:39:49;;;;;;;12.27;7.53;;;18.10;99.90;;;;;;5058673;28;20635;-77
2021/09/14 20:42:16;;;;;;;10.80;7.68;;;18.10;99.90;;;;;;5059986;28;20053;-77
2021/09/14 20:44:43;;;;;;;12.10;7.53;;;18.00;99.90;;;;;;5045877;28;20044;-76
2021/09/14 20:47:10;;;;;;;9.45;7.15;;;18.00;99.90;;;;;;5055779;28;20481;-76
2021/09/14 20:49:37;;;;;;;9.93;7.20;;;17.90;99.90;;;;;;5063263;28;20048;-76
2021/09/14 20:52:04;;;;;;;10.35;7.22;;;17.80;99.90;;;;;;5061585;28;20129;-76
2021/09/14 20:54:31;;;;;;;13.20;7.32;;;17.80;99.90;;;;;;5060403;28;20481;-76
2021/09/14 20:56:58;;;;;;;10.52;7.60;;;17.70;99.90;;;;;;5063867;28;20057;-76
2021/09/14 20:59:26;;;;;;;12.07;8.32;;;17.60;99.90;;;;;;5065729;28;20048;-76
2021/09/14 21:01:52;;;;;;;11.43;8.68;;;17.60;99.90;;;;;;5066056;28;20051;-76
2021/09/14 21:04:20;;;;;;;12.07;8.65;;;17.60;99.90;;;;;;5068764;28;20400;-76
2021/09/14 21:06:47;;;;;;;11.30;8.35;;;17.50;99.90;;;;;;5069351;28;20051;-75
2021/09/14 21:09:14;;;;;;;12.60;8.00;;;17.50;99.90;;;;;;5065278;28;20040;-76
2021/09/14 21:11:41;;;;;;;10.73;8.15;;;17.50;99.90;;;;;;5069149;28;20059;-76
2021/09/14 21:14:08;;;;;;;13.82;8.48;;;17.50;99.90;;;;;;5069371;28;20122;-76
2021/09/14 21:16:35;;;;;;;11.95;9.23;;;17.50;99.90;;;;;;5069162;28;20044;-76
2021/09/14 21:19:03;;;;;;;13.43;8.23;;;17.50;99.90;;;;;;5066578;28;20404;-76
2021/09/14 21:22:11;;;;;;;13.45;8.73;;;17.50;99.90;;;;;;5065071;28;20431;-75
2021/09/14 21:24:43;;;;;;;12.23;8.55;;;17.50;99.90;;;;;;5057632;28;20461;-76
2021/09/14 21:27:15;;;;;;;9.30;7.97;;;17.40;99.90;;;;;;5055181;28;20076;-77
2021/09/14 21:29:42;;;;;;;13.55;7.35;;;17.40;99.90;;;;;;5064564;28;20055;-76
2021/09/14 21:32:09;;;;;;;10.23;7.45;;;17.30;99.90;;;;;;5066269;28;20045;-76
2021/09/14 21:34:36;;;;;;;12.23;7.93;;;17.30;99.90;;;;;;5064490;28;20396;-76
2021/09/14 21:37:03;;;;;;;10.15;7.82;;;17.30;99.90;;;;;;5055294;28;20041;-76
2021/09/14 21:39:30;;;;;;;10.00;7.93;;;17.20;99.90;;;;;;5069815;28;20040;-76
2021/09/14 21:41:57;;;;;;;11.98;8.18;;;17.20;99.90;;;;;;5072264;28;20052;-76
2021/09/14 21:44:24;;;;;;;10.18;7.78;;;17.10;99.90;;;;;;5055555;28;20389;-77
2021/09/14 21:46:51;;;;;;;11.27;7.57;;;17.10;99.90;;;;;;5059043;28;20037;-77
2021/09/14 21:49:18;;;;;;;11.23;7.85;;;17.10;99.90;;;;;;5065861;28;20105;-77
2021/09/14 21:51:45;;;;;;;11.10;7.55;;;17.10;99.90;;;;;;5067839;28;20074;-77
2021/09/14 21:54:12;;;;;;;14.00;8.02;;;17.00;99.90;;;;;;5071593;28;20045;-77
2021/09/14 21:56:39;;;;;;;9.95;6.88;;;17.00;99.90;;;;;;5055982;28;20056;-76
2021/09/14 21:59:07;;;;;;;11.95;7.60;;;16.90;99.90;;;;;;5053526;28;20057;-76
2021/09/14 22:01:34;;;;;;;11.30;7.65;;;17.00;99.90;;;;;;5068844;28;20055;-76
2021/09/14 22:04:01;;;;;;;12.02;8.15;;;16.90;99.90;;;;;;5063311;28;20495;-76
2021/09/14 22:06:28;;;;;;;12.98;8.55;;;16.90;99.90;;;;;;5055388;28;20048;-76
2021/09/14 22:08:55;;;;;;;11.70;8.90;;;16.80;99.90;;;;;;5069813;28;20051;-76
2021/09/14 22:11:22;;;;;;;11.27;8.70;;;16.80;99.90;;;;;;5055664;28;20048;-76